Latest Coastal Weather Observations for Larapuna (Eddystone Point)

IDT60701

Issued at 6:32 am EST Monday 1 May 2017 (issued every 10 minutes, with the page automatically refreshed every 10 minutes)

About coastal observations | Map of coastal stations | Coastal observations for TAS | Marine services | Other Formats
Station Details ID: 092045 Name: LARAPUNA (EDDYSTONE POINT) Lat: -40.99 Lon: 148.35 Height: 19.7 m
Data from the previous 72 hours. | See also: Recent months at Larapuna (Eddystone Point)
Date/Time
EST
Temp
°C
Wind Pressure Rain since
9am
mm
Weather Cloud Vis
km
Sea
Height
m
Swell
Dir  Spd
kts
Gust
kts
hPa Trend Height
m
Period
s
Dir
01/06:30am 15.8 NNW 22 31 1010.9 - 0.0 - - - - - - -
01/06:22am 15.8 NNW 21 31 1011.0 - 0.0 - - - - - - -
01/06:00am 15.7 NNW 22 28 1011.2 - 0.0 - - - - - - -
01/05:30am 15.7 NNW 21 30 1011.4 - 0.0 - - - - - - -
01/05:00am 15.7 NNW 16 23 1011.6 - 0.0 - - - - - - -
01/04:30am 15.5 NW 16 20 1012.1 - 0.0 - - - - - - -
01/04:00am 15.4 NNW 19 27 1012.3 - 0.0 - - - - - - -
01/03:32am 15.3 NW 18 28 1012.3 - 0.0 - - - - - - -
01/03:30am 15.2 NW 17 25 1012.3 - 0.0 - - - - - - -
01/03:00am 15.5 NW 19 25 1012.8 - 0.0 - - - - - - -
01/02:30am 15.2 NW 16 22 1013.2 - 0.0 - - - - - - -
01/02:00am 15.0 NW 16 24 1013.8 - 0.0 - - - - - - -
01/01:30am 15.1 NW 16 25 1014.2 - 0.0 - - - - - - -
01/01:00am 14.8 NW 16 20 1014.6 - 0.0 - - - - - - -
01/12:30am 14.6 NW 15 21 1015.0 - 0.0 - - - - - - -
01/12:00am 14.7 NW 17 23 1015.1 - 0.0 - - - - - - -
 
Date/Time
EST
Temp
°C
Wind Pressure Rain since
9am
mm
Weather Cloud Vis
km
Sea
Height
m
Swell
Dir  Spd
kts
Gust
kts
hPa Trend Height
m
Period
s
Dir
30/11:30pm 14.9 NW 17 23 1015.2 - 0.0 - - - - - - -
30/11:00pm 15.0 NW 16 22 1015.3 - 0.0 - - - - - - -
30/10:30pm 14.7 NW 17 21 1015.6 - 0.0 - - - - - - -
30/10:00pm 14.2 NW 14 17 1015.9 - 0.0 - - - - - - -
30/09:30pm 14.0 NW 13 17 1016.1 - 0.0 - - - - - - -
30/09:00pm 13.2 NW 11 15 1016.4 - 0.0 - - - - - - -
30/08:30pm 13.1 NW 15 21 1016.5 - 0.0 - - - - - - -
30/08:00pm 13.3 NW 12 15 1016.8 - 0.0 - - - - - - -
30/07:30pm 13.1 NW 13 16 1016.8 - 0.0 - - - - - - -
30/07:00pm 12.7 NW 11 15 1017.0 - 0.0 - - - - - - -
30/06:30pm 12.8 WNW 13 18 1017.1 - 0.0 - - - - - - -
30/06:00pm 13.1 WNW 16 21 1017.0 - 0.0 - - - - - - -
30/05:30pm 13.8 NW 17 22 1016.8 - 0.0 - - - - - - -
30/05:00pm 14.1 NW 17 23 1016.8 - 0.0 - - - - - - -
30/04:30pm 15.0 NW 15 21 1016.9 - 0.0 - - - - - - -
30/04:00pm 15.2 NW 15 22 1017.1 - 0.0 - - - - - - -
30/03:30pm 15.2 NW 17 23 1017.3 - 0.0 - - - - - - -
30/03:00pm 15.9 NW 15 22 1017.4 - 0.0 - - - - - - -
30/02:30pm 16.3 NW 17 23 1017.5 - 0.0 - - - - - - -
30/02:00pm 16.2 NW 15 21 1017.8 - 0.0 - - - - - - -
30/01:30pm 16.7 NW 16 22 1018.1 - 0.0 - - - - - - -
30/01:00pm 16.9 NNW 17 22 1018.4 - 0.0 - - - - - - -
30/12:30pm 17.3 NNW 15 25 1018.8 - 0.0 - - - - - - -
30/12:00pm 17.9 NW 15 20 1019.4 - 0.0 - - - - - - -
30/11:30am 17.4 NW 16 21 1019.9 - 0.0 - - - - - - -
30/11:00am 16.9 NW 15 21 1020.3 - 0.0 - - - - - - -
30/10:30am 16.4 NW 11 14 1020.4 - 0.0 - - - - - - -
30/10:00am 16.2 NNW 16 20 1020.6 - 0.0 - - - - - - -
30/09:30am 16.4 NNW 16 21 1020.7 - 0.0 - - - - - - -
30/09:00am 16.3 N 15 21 1021.0 - 0.0 - - - - - - -
30/08:30am 15.9 N 14 18 1021.2 - 0.0 - - - - - - -
30/08:00am 15.0 NW 11 14 1021.2 - 0.0 - - - - - - -
30/07:30am 13.2 NW 8 11 1021.1 - 0.0 - - - - - - -
30/07:00am 12.5 NW 7 8 1021.3 - 0.0 - - - - - - -
30/06:30am 12.9 NW 6 7 1021.3 - 0.0 - - - - - - -
30/06:00am 13.2 NW 6 7 1021.0 - 0.0 - - - - - - -
30/05:30am 12.9 W 5 6 1021.0 - 0.0 - - - - - - -
30/05:00am 13.4 WNW 9 12 1020.9 - 0.0 - - - - - - -
30/04:30am 13.7 CALM 0 0 1020.8 - 0.0 - - - - - - -
30/04:00am 13.7 NE 3 3 1020.8 - 0.0 - - - - - - -
30/03:30am 13.6 SE 4 5 1021.0 - 0.0 - - - - - - -
30/03:00am 13.9 ESE 5 6 1021.4 - 0.0 - - - - - - -
30/02:30am 14.0 SSE 7 9 1021.8 - 0.0 - - - - - - -
30/02:00am 13.9 SE 7 8 1021.9 - 0.0 - - - - - - -
30/01:30am 13.9 SE 6 7 1021.9 - 0.0 - - - - - - -
30/01:00am 13.8 SE 6 8 1021.9 - 0.0 - - - - - - -
30/12:30am 13.9 SE 6 8 1022.1 - 0.0 - - - - - - -
30/12:00am 14.0 SSE 7 8 1022.1 - 0.0 - - - - - - -
 
Date/Time
EST
Temp
°C
Wind Pressure Rain since
9am
mm
Weather Cloud Vis
km
Sea
Height
m
Swell
Dir  Spd
kts
Gust
kts
hPa Trend Height
m
Period
s
Dir
29/11:30pm 14.3 SSE 9 10 1022.1 - 0.0 - - - - - - -
29/11:00pm 14.6 SSE 9 11 1022.0 - 0.0 - - - - - - -
29/10:30pm 14.7 ESE 6 8 1022.1 - 0.0 - - - - - - -
29/10:00pm 14.7 ESE 6 9 1022.0 - 0.0 - - - - - - -
29/09:30pm 14.8 ESE 8 10 1021.8 - 0.0 - - - - - - -
29/09:00pm 14.9 ESE 7 10 1021.6 - 0.0 - - - - - - -
29/08:30pm 15.1 ESE 9 12 1021.3 - 0.0 - - - - - - -
29/08:00pm 15.3 ESE 9 11 1021.3 - 0.0 - - - - - - -
29/07:30pm 15.5 ESE 9 11 1021.3 - 0.0 - - - - - - -
29/07:00pm 15.6 ESE 9 11 1021.0 - 0.0 - - - - - - -
29/06:30pm 15.5 E 7 9 1020.4 - 0.0 - - - - - - -
29/06:00pm 15.5 ESE 7 9 1020.0 - 0.0 - - - - - - -
29/05:30pm 15.5 E 6 7 1019.6 - 0.0 - - - - - - -
29/05:00pm 15.6 ENE 7 9 1018.9 - 0.0 - - - - - - -
29/04:30pm 15.8 E 6 7 1018.7 - 0.0 - - - - - - -
29/04:00pm 17.0 E 6 8 1018.5 - 0.0 - - - - - - -
29/03:30pm 17.9 E 5 7 1018.0 - 0.0 - - - - - - -
29/03:00pm 18.4 NNE 5 6 1017.7 - 0.0 - - - - - - -
29/02:30pm 18.0 NNE 6 8 1017.4 - 0.0 - - - - - - -
29/02:00pm 18.5 NNE 6 7 1017.1 - 0.0 - - - - - - -
29/01:30pm 19.3 NE 6 7 1016.9 - 0.0 - - - - - - -
29/01:00pm 18.4 NNE 5 6 1017.0 - 0.0 - - - - - - -
29/12:30pm 18.7 NE 4 5 1017.0 - 0.0 - - - - - - -
29/12:00pm 18.8 NE 4 5 1016.9 - 0.0 - - - - - - -
29/11:30am 18.4 ENE 4 5 1016.9 - 0.0 - - - - - - -
29/11:00am 18.2 ESE 4 5 1016.7 - 0.0 - - - - - - -
29/10:30am 18.1 SSE 3 4 1016.4 - 0.0 - - - - - - -
29/10:00am 17.8 SSW 5 6 1016.1 - 0.0 - - - - - - -
29/09:30am 17.7 S 8 9 1016.2 - 0.0 - - - - - - -
29/09:00am 16.5 WSW 7 8 1015.8 - 0.0 - - - - - - -
29/08:30am 15.1 WSW 9 13 1015.4 - 0.0 - - - - - - -
29/08:00am 14.0 WSW 8 11 1015.0 - 0.0 - - - - - - -
29/07:30am 13.0 W 9 14 1014.2 - 0.0 - - - - - - -
29/07:00am 12.7 W 11 14 1013.7 - 0.0 - - - - - - -
29/06:30am 13.0 W 12 16 1013.4 - 0.0 - - - - - - -
29/06:00am 13.4 WNW 11 15 1012.9 - 0.0 - - - - - - -
29/05:30am 13.7 WNW 14 18 1012.8 - 0.0 - - - - - - -
29/05:00am 13.7 W 12 16 1012.8 - 0.0 - - - - - - -
29/04:30am 14.0 WNW 14 17 1012.6 - 0.0 - - - - - - -
29/04:00am 14.2 W 11 16 1012.9 - 0.0 - - - - - - -
29/03:30am 14.4 W 7 12 1013.1 - 0.0 - - - - - - -
29/03:00am 14.1 WNW 5 10 1012.7 - 0.0 - - - - - - -
29/02:30am 14.0 W 6 11 1012.6 - 0.0 - - - - - - -
29/02:00am 14.4 WNW 14 22 1012.2 - 0.0 - - - - - - -
29/01:30am 14.6 WNW 13 22 1012.7 - 0.0 - - - - - - -
29/01:00am 14.8 WSW 6 13 1013.0 - 0.0 - - - - - - -
29/12:30am 14.6 SSW 6 9 1012.9 - 0.0 - - - - - - -
29/12:00am 14.7 E 3 6 1012.7 - 0.0 - - - - - - -
 
Date/Time
EST
Temp
°C
Wind Pressure Rain since
9am
mm
Weather Cloud Vis
km
Sea
Height
m
Swell
Dir  Spd
kts
Gust
kts
hPa Trend Height
m
Period
s
Dir
28/11:30pm 15.1 NW 5 10 1012.8 - 0.0 - - - - - - -
28/11:00pm 14.9 WNW 6 13 1013.1 - 0.0 - - - - - - -
28/10:30pm 14.8 WNW 8 16 1013.0 - 0.0 - - - - - - -
28/10:00pm 14.9 WNW 7 12 1013.3 - 0.0 - - - - - - -
28/09:30pm 14.8 WNW 11 19 1013.3 - 0.0 - - - - - - -
28/09:00pm 14.9 WNW 15 24 1013.3 - 0.0 - - - - - - -
28/08:30pm 15.0 WNW 16 21 1013.4 - 0.0 - - - - - - -
28/08:00pm 15.0 WNW 17 23 1013.7 - 0.0 - - - - - - -
28/07:30pm 15.1 WNW 19 27 1013.7 - 0.0 - - - - - - -
28/07:00pm 15.2 WNW 21 31 1013.4 - 0.0 - - - - - - -
28/06:30pm 15.1 WNW 19 29 1012.9 - 0.0 - - - - - - -
28/06:15pm 15.1 WNW 16 26 1013.2 - 0.0 - - - - - - -
28/06:00pm 15.0 WNW 18 27 1013.1 - 0.0 - - - - - - -
28/05:50pm 14.9 WNW 19 29 1013.1 - 0.0 - - - - - - -
28/05:30pm 15.0 WNW 21 29 1012.6 - 0.0 - - - - - - -
28/05:00pm 15.1 WNW 25 37 1012.3 - 0.0 - - - - - - -
28/04:30pm 15.5 WNW 23 38 1011.9 - 0.0 - - - - - - -
28/04:00pm 15.9 WNW 23 33 1012.1 - 0.0 - - - - - - -
28/03:30pm 16.3 NW 21 34 1012.6 - 0.0 - - - - - - -
28/03:00pm 16.7 WNW 24 35 1012.6 - 0.0 - - - - - - -
28/02:30pm 16.5 WNW 25 36 1012.6 - 0.0 - - - - - - -
28/02:00pm 16.9 WNW 21 32 1013.3 - 0.0 - - - - - - -
28/01:36pm 17.2 WNW 19 30 1013.6 - 0.0 - - - - - - -
28/01:30pm 17.6 WNW 18 25 1013.8 - 0.0 - - - - - - -
28/01:00pm 17.0 WNW 18 26 1014.2 - 0.0 - - - - - - -
28/12:30pm 17.9 WNW 19 27 1014.2 - 0.0 - - - - - - -
28/12:00pm 17.6 WNW 17 27 1014.9 - 0.0 - - - - - - -
28/11:51am 17.6 WNW 16 27 1015.2 - 0.0 - - - - - - -
28/11:30am 17.4 WNW 17 24 1015.3 - 0.0 - - - - - - -
28/11:00am 17.1 WNW 15 22 1015.6 - 0.0 - - - - - - -
28/10:30am 17.0 W 16 24 1016.0 - 0.0 - - - - - - -
28/10:00am 16.6 W 13 20 1016.4 - 0.0 - - - - - - -
28/09:30am 16.2 WNW 13 21 1016.3 - 0.0 - - - - - - -
28/09:00am 15.4 WNW 10 17 1016.6 - 0.0 - - - - - - -
28/08:30am 15.0 WNW 10 14 1016.7 - 0.0 - - - - - - -
28/08:00am 14.0 WNW 13 21 1016.2 - 0.0 - - - - - - -
28/07:30am 13.3 W 13 19 1016.3 - 0.0 - - - - - - -
28/07:00am 13.0 W 17 25 1015.8 - 0.0 - - - - - - -
28/06:47am 12.8 W 15 25 1015.6 - 0.0 - - - - - - -

Other Formats:

Comma delimited format used in spreadsheet applications
http://www.bom.gov.au/fwo/IDT60701/IDT60701.94983.axf

JavaScript Object Notation format (JSON) in row-major order
http://www.bom.gov.au/fwo/IDT60701/IDT60701.94983.json